createdAt,value
2024-03-09T00:01:45.635Z,8.27
2024-03-09T00:04:48.740Z,7.40
2024-03-09T00:07:51.902Z,7.55
2024-03-09T00:10:54.763Z,7.73
2024-03-09T00:13:57.944Z,7.18
2024-03-09T00:17:00.706Z,7.57
2024-03-09T00:20:05.137Z,7.65
2024-03-09T00:26:19.876Z,7.97
2024-03-09T00:29:22.656Z,6.97
2024-03-09T00:32:28.300Z,6.90
2024-03-09T00:35:32.344Z,7.53
2024-03-09T00:38:35.828Z,6.65
2024-03-09T00:41:44.434Z,7.00
2024-03-09T00:44:47.995Z,6.65
2024-03-09T00:50:55.129Z,6.40
2024-03-09T00:53:58.343Z,5.65
2024-03-09T00:57:04.137Z,5.78
2024-03-09T01:00:17.006Z,9.10
2024-03-09T01:03:19.733Z,6.80
2024-03-09T01:06:22.467Z,6.47
2024-03-09T01:09:27.168Z,7.32
2024-03-09T01:12:30.331Z,7.00
2024-03-09T01:15:32.761Z,6.20
2024-03-09T01:18:35.604Z,6.22
2024-03-09T01:21:38.238Z,6.57
2024-03-09T01:24:41.666Z,8.85
2024-03-09T01:27:43.804Z,7.45
2024-03-09T01:30:46.834Z,6.50
2024-03-09T01:33:49.414Z,6.78
2024-03-09T01:36:52.108Z,6.55
2024-03-09T01:39:55.148Z,6.50
2024-03-09T01:42:58.082Z,7.25
2024-03-09T01:46:00.404Z,7.22
2024-03-09T01:49:03.437Z,6.55
2024-03-09T01:52:07.842Z,6.45
2024-03-09T01:55:11.500Z,8.70
2024-03-09T01:58:21.244Z,8.43
2024-03-09T02:01:25.574Z,7.38
2024-03-09T02:04:33.204Z,6.47
2024-03-09T02:07:36.996Z,6.63
2024-03-09T02:10:47.196Z,5.93
2024-03-09T02:13:52.223Z,6.32
2024-03-09T02:16:56.887Z,6.82
2024-03-09T02:20:00.886Z,6.65
2024-03-09T02:23:05.143Z,6.18
2024-03-09T02:26:08.889Z,6.25
2024-03-09T02:29:13.194Z,6.22
2024-03-09T02:35:20.025Z,6.38
2024-03-09T02:38:23.648Z,7.07
2024-03-09T02:41:27.023Z,6.72
2024-03-09T02:44:30.056Z,6.80
2024-03-09T02:47:33.181Z,6.47
2024-03-09T02:50:36.373Z,5.68
2024-03-09T02:53:38.668Z,6.63
2024-03-09T02:56:41.777Z,6.57
2024-03-09T02:59:48.207Z,5.95
2024-03-09T03:03:09.723Z,7.95
2024-03-09T03:06:12.408Z,6.15
2024-03-09T03:09:19.699Z,8.80
2024-03-09T03:12:21.896Z,5.13
2024-03-09T03:19:58.700Z,6.32
2024-03-09T03:23:01.256Z,5.65
2024-03-09T03:26:06.022Z,5.50
2024-03-09T03:32:12.731Z,6.50
2024-03-09T03:35:15.501Z,6.00
2024-03-09T03:38:18.224Z,6.88
2024-03-09T03:41:24.692Z,7.47
2024-03-09T03:44:31.207Z,6.78
2024-03-09T03:47:33.698Z,5.43
2024-03-09T03:50:36.425Z,5.25
2024-03-09T03:53:39.857Z,6.20
2024-03-09T03:56:43.355Z,5.38
2024-03-09T03:59:46.564Z,6.38
2024-03-09T04:02:49.854Z,7.03
2024-03-09T04:05:54.539Z,6.43
2024-03-09T04:08:59.618Z,7.70
2024-03-09T04:12:02.392Z,5.47
2024-03-09T04:15:06.635Z,7.53
2024-03-09T04:22:47.617Z,7.22
2024-03-09T04:26:00.164Z,7.15
2024-03-09T04:29:03.971Z,6.18
2024-03-09T04:32:09.102Z,7.80
2024-03-09T04:35:13.514Z,6.53
2024-03-09T04:38:17.774Z,5.95
2024-03-09T04:41:21.128Z,6.20
2024-03-09T04:44:30.560Z,6.03
2024-03-09T04:47:34.531Z,6.40
2024-03-09T04:50:40.355Z,9.47
2024-03-09T04:53:43.177Z,6.40
2024-03-09T04:56:46.087Z,6.07
2024-03-09T04:59:49.812Z,6.28
2024-03-09T05:02:52.557Z,5.87
2024-03-09T05:05:55.244Z,5.57
2024-03-09T05:08:58.623Z,7.70
2024-03-09T05:12:02.322Z,6.60
2024-03-09T05:15:06.206Z,6.38
2024-03-09T05:18:10.443Z,5.97
2024-03-09T05:21:13.177Z,6.18
2024-03-09T05:24:19.663Z,5.93
2024-03-09T05:27:22.908Z,5.70
2024-03-09T05:30:30.124Z,4.63
2024-03-09T05:33:32.568Z,6.65
2024-03-09T05:36:36.305Z,5.47
2024-03-09T05:39:38.547Z,6.47
2024-03-09T05:42:51.712Z,7.38
2024-03-09T05:45:55.013Z,6.97
2024-03-09T05:48:57.809Z,6.80
2024-03-09T05:52:00.100Z,6.30
2024-03-09T05:55:03.284Z,5.72
2024-03-09T05:58:08.679Z,6.68
2024-03-09T06:01:11.595Z,8.50
2024-03-09T06:04:14.018Z,9.05
2024-03-09T06:07:17.377Z,7.57
2024-03-09T06:10:20.229Z,6.72
2024-03-09T06:13:23.826Z,5.22
2024-03-09T06:16:26.071Z,6.88
2024-03-09T06:19:29.406Z,6.53
2024-03-09T06:22:31.883Z,6.80
2024-03-09T06:25:35.561Z,6.47
2024-03-09T06:28:40.548Z,6.05
2024-03-09T06:31:44.901Z,5.82
2024-03-09T06:34:49.177Z,6.55
2024-03-09T06:41:05.318Z,6.22
2024-03-09T06:44:15.878Z,5.93
2024-03-09T06:47:18.284Z,6.38
2024-03-09T06:50:21.481Z,6.43
2024-03-09T06:53:27.143Z,7.28
2024-03-09T06:56:36.771Z,7.40
2024-03-09T06:59:42.212Z,6.55
2024-03-09T07:02:45.671Z,5.55
2024-03-09T07:05:47.996Z,7.07
2024-03-09T07:08:51.749Z,6.72
2024-03-09T07:11:54.086Z,7.38
2024-03-09T07:14:58.656Z,6.05
2024-03-09T07:18:02.162Z,6.68
2024-03-09T07:21:06.711Z,5.43
2024-03-09T07:24:09.604Z,5.78
2024-03-09T07:27:14.799Z,5.75
2024-03-09T07:30:17.337Z,6.10
2024-03-09T07:33:20.355Z,6.20
2024-03-09T07:36:22.761Z,7.75
2024-03-09T07:39:25.421Z,6.15
2024-03-09T07:42:27.756Z,5.07
2024-03-09T07:45:31.812Z,4.70
2024-03-09T07:51:38.584Z,5.93
2024-03-09T07:54:41.447Z,6.38
2024-03-09T07:57:47.958Z,4.57
2024-03-09T08:00:51.604Z,5.75
2024-03-09T08:03:54.814Z,6.43
2024-03-09T08:06:58.788Z,6.03
2024-03-09T08:10:02.771Z,5.68
2024-03-09T08:13:05.017Z,6.30
2024-03-09T08:16:07.826Z,8.05
2024-03-09T08:19:10.021Z,5.47
2024-03-09T08:22:13.104Z,7.03
2024-03-09T08:25:18.181Z,6.13
2024-03-09T08:28:21.970Z,6.32
2024-03-09T08:31:25.766Z,5.10
2024-03-09T08:34:28.707Z,6.00
2024-03-09T08:37:31.033Z,5.47
2024-03-09T08:40:34.079Z,7.38
2024-03-09T08:43:36.567Z,6.75
2024-03-09T08:46:40.494Z,5.55
2024-03-09T08:49:43.425Z,6.85
2024-03-09T08:52:49.244Z,6.38
2024-03-09T08:55:53.368Z,6.13
2024-03-09T08:58:56.431Z,5.60
2024-03-09T09:01:58.934Z,5.90
2024-03-09T09:05:01.906Z,5.82
2024-03-09T09:08:05.728Z,5.38
2024-03-09T09:11:14.946Z,5.35
2024-03-09T09:14:17.480Z,6.30
2024-03-09T09:17:20.620Z,5.00
2024-03-09T09:20:24.162Z,6.20
2024-03-09T09:23:27.017Z,5.72
2024-03-09T09:26:30.268Z,5.28
2024-03-09T09:29:36.219Z,6.15
2024-03-09T09:32:43.405Z,7.03
2024-03-09T09:35:47.731Z,5.70
2024-03-09T09:38:51.279Z,6.60
2024-03-09T09:41:58.931Z,5.95
2024-03-09T09:45:01.881Z,5.72
2024-03-09T09:48:06.622Z,6.00
2024-03-09T09:51:11.557Z,6.95
2024-03-09T09:54:14.463Z,5.82
2024-03-09T09:57:19.366Z,6.50
2024-03-09T10:00:25.421Z,9.05
2024-03-09T10:03:31.208Z,5.65
2024-03-09T10:06:34.400Z,6.05
2024-03-09T10:09:38.154Z,6.28
2024-03-09T10:12:42.405Z,4.50
2024-03-09T10:15:52.493Z,7.13
2024-03-09T10:18:57.666Z,8.50
2024-03-09T10:22:00.039Z,7.20
2024-03-09T10:25:02.992Z,6.00
2024-03-09T10:28:10.135Z,6.22
2024-03-09T10:31:18.189Z,7.22
2024-03-09T10:34:20.722Z,6.07
2024-03-09T10:37:24.672Z,5.30
2024-03-09T10:40:28.132Z,8.27
2024-03-09T10:43:31.466Z,6.53
2024-03-09T10:46:37.725Z,6.60
2024-03-09T10:49:45.810Z,7.60
2024-03-09T10:52:53.893Z,6.07
2024-03-09T10:56:32.579Z,6.10
2024-03-09T10:59:37.588Z,6.70
2024-03-09T11:05:48.313Z,6.95
2024-03-09T11:08:55.092Z,5.93
2024-03-09T11:12:02.948Z,5.93
2024-03-09T11:15:09.978Z,5.93
2024-03-09T11:18:15.306Z,5.70
2024-03-09T11:21:28.295Z,7.03
2024-03-09T11:24:31.496Z,5.97
2024-03-09T11:27:35.285Z,5.63
2024-03-09T11:30:38.299Z,6.00
2024-03-09T11:33:51.649Z,5.90
2024-03-09T11:36:58.494Z,7.95
2024-03-09T11:40:00.813Z,5.15
2024-03-09T11:43:12.690Z,5.68
2024-03-09T11:46:15.176Z,6.13
2024-03-09T11:49:18.257Z,14.80
2024-03-09T11:52:23.795Z,5.80
2024-03-09T11:55:29.762Z,6.63
2024-03-09T11:58:32.657Z,5.18
2024-03-09T12:01:38.918Z,6.10
2024-03-09T12:04:43.640Z,5.60
2024-03-09T12:07:49.207Z,6.28
2024-03-09T12:10:54.362Z,17.83
2024-03-09T12:13:58.091Z,14.20
2024-03-09T12:17:00.473Z,14.43
2024-03-09T12:20:06.784Z,7.60
2024-03-09T12:23:13.522Z,7.10
2024-03-09T12:26:17.401Z,12.77
2024-03-09T12:29:19.853Z,18.92
2024-03-09T12:32:26.369Z,13.85
2024-03-09T12:35:30.303Z,13.40
2024-03-09T12:38:34.421Z,12.77
2024-03-09T12:41:38.550Z,8.67
2024-03-09T12:44:42.445Z,8.23
2024-03-09T12:47:47.696Z,9.00
2024-03-09T12:50:55.120Z,12.35
2024-03-09T12:54:08.896Z,15.20
2024-03-09T12:57:17.046Z,10.23
2024-03-09T13:00:21.925Z,11.32
2024-03-09T13:03:25.909Z,14.48
2024-03-09T13:06:29.927Z,18.85
2024-03-09T13:09:34.430Z,17.45
2024-03-09T13:15:41.986Z,11.25
2024-03-09T13:18:51.691Z,11.15
2024-03-09T13:21:54.724Z,10.07
2024-03-09T13:24:57.883Z,7.05
2024-03-09T13:28:03.896Z,6.88
2024-03-09T13:31:08.925Z,9.63
2024-03-09T13:34:14.477Z,8.85
2024-03-09T13:37:19.101Z,5.07
2024-03-09T13:40:28.311Z,6.25
2024-03-09T13:43:30.557Z,8.98
2024-03-09T13:46:33.362Z,9.73
2024-03-09T13:49:36.051Z,6.53
2024-03-09T13:52:41.710Z,12.40
2024-03-09T13:55:44.534Z,8.18
2024-03-09T13:58:49.305Z,5.47
2024-03-09T14:01:51.926Z,9.15
2024-03-09T14:04:54.872Z,7.75
2024-03-09T14:07:59.471Z,14.05
2024-03-09T14:11:03.059Z,14.05
2024-03-09T14:14:10.225Z,4.97
2024-03-09T14:17:14.088Z,4.93
2024-03-09T14:20:23.484Z,4.55
2024-03-09T14:23:27.614Z,5.15
2024-03-09T14:26:31.474Z,6.03
2024-03-09T14:29:36.440Z,5.07
2024-03-09T14:38:47.936Z,4.78
2024-03-09T14:41:53.170Z,4.90
2024-03-09T14:44:56.147Z,4.82
2024-03-09T14:48:01.620Z,8.20
2024-03-09T14:51:08.651Z,5.28
2024-03-09T14:54:12.045Z,6.50
2024-03-09T14:57:14.243Z,4.50
2024-03-09T15:00:38.173Z,7.28
2024-03-09T15:03:45.840Z,4.85
2024-03-09T15:06:48.883Z,6.88
2024-03-09T15:09:51.679Z,3.55
2024-03-09T15:12:55.123Z,4.57
2024-03-09T15:15:58.648Z,4.05
2024-03-09T15:19:01.878Z,4.60
2024-03-09T15:22:04.637Z,6.40
2024-03-09T15:25:19.624Z,5.70
2024-03-09T15:28:22.019Z,5.95
2024-03-09T15:31:25.777Z,5.18
2024-03-09T15:34:28.543Z,4.93
2024-03-09T15:37:31.571Z,5.20
2024-03-09T15:40:34.200Z,5.10
2024-03-09T15:43:37.715Z,4.10
2024-03-09T15:46:40.349Z,5.72
2024-03-09T15:49:43.182Z,4.35
2024-03-09T15:52:46.543Z,5.70
2024-03-09T15:55:53.045Z,4.55
2024-03-09T15:58:58.431Z,4.53
2024-03-09T16:02:01.964Z,5.75
2024-03-09T16:05:08.516Z,4.60
2024-03-09T16:08:14.545Z,4.45
2024-03-09T16:11:18.006Z,5.35
2024-03-09T16:14:23.433Z,4.20
2024-03-09T16:17:26.899Z,4.60
2024-03-09T16:20:31.889Z,4.63
2024-03-09T16:23:36.166Z,5.28
2024-03-09T16:26:39.508Z,5.38
2024-03-09T16:29:42.561Z,4.90
2024-03-09T16:32:47.666Z,4.72
2024-03-09T16:38:54.040Z,3.42
2024-03-09T16:41:56.572Z,4.50
2024-03-09T16:45:01.921Z,5.45
2024-03-09T16:48:07.834Z,6.43
2024-03-09T16:51:11.103Z,4.20
2024-03-09T16:54:13.619Z,4.88
2024-03-09T16:57:16.494Z,6.75
2024-03-09T17:00:22.508Z,4.47
2024-03-09T17:03:25.470Z,3.30
2024-03-09T17:06:29.117Z,5.43
2024-03-09T17:09:32.401Z,3.60
2024-03-09T17:12:40.177Z,4.97
2024-03-09T17:15:43.867Z,4.63
2024-03-09T17:18:50.421Z,4.05
2024-03-09T17:21:56.215Z,4.45
2024-03-09T17:25:00.121Z,4.43
2024-03-09T17:28:06.886Z,4.60
2024-03-09T17:31:09.956Z,5.43
2024-03-09T17:34:15.894Z,4.10
2024-03-09T17:37:21.556Z,6.97
2024-03-09T17:40:25.308Z,3.85
2024-03-09T17:43:29.330Z,5.07
2024-03-09T17:46:31.896Z,4.43
2024-03-09T17:49:35.358Z,5.85
2024-03-09T17:52:38.797Z,4.47
2024-03-09T17:55:41.138Z,3.75
2024-03-09T17:58:48.325Z,4.53
2024-03-09T18:01:52.128Z,4.40
2024-03-09T18:04:55.507Z,4.43
2024-03-09T18:08:06.032Z,4.38
2024-03-09T18:11:09.283Z,5.22
2024-03-09T18:14:13.541Z,3.97
2024-03-09T18:17:16.263Z,4.85
2024-03-09T18:20:19.533Z,5.88
2024-03-09T18:23:22.923Z,3.97
2024-03-09T18:26:28.953Z,4.32
2024-03-09T18:29:31.838Z,7.20
2024-03-09T18:32:34.129Z,5.43
2024-03-09T18:35:39.228Z,4.65
2024-03-09T18:38:43.638Z,4.47
2024-03-09T18:41:52.033Z,5.80
2024-03-09T18:44:55.421Z,4.47
2024-03-09T18:47:59.236Z,4.55
2024-03-09T18:51:02.382Z,5.45
2024-03-09T18:54:05.108Z,6.35
2024-03-09T18:57:11.525Z,5.97
2024-03-09T19:00:18.107Z,4.78
2024-03-09T19:03:31.165Z,6.35
2024-03-09T19:06:33.753Z,6.88
2024-03-09T19:09:37.827Z,5.30
2024-03-09T19:12:41.246Z,6.13
2024-03-09T19:15:43.494Z,4.60
2024-03-09T19:18:46.582Z,4.90
2024-03-09T19:21:48.996Z,5.72
2024-03-09T19:24:51.593Z,4.47
2024-03-09T19:27:54.199Z,6.10
2024-03-09T19:30:57.314Z,4.95
2024-03-09T19:34:00.952Z,4.72
2024-03-09T19:37:03.833Z,5.80
2024-03-09T19:40:16.946Z,4.40
2024-03-09T19:43:21.625Z,4.65
2024-03-09T19:46:25.756Z,5.00
2024-03-09T19:49:28.842Z,4.32
2024-03-09T19:52:32.332Z,4.53
2024-03-09T19:55:36.438Z,5.70
2024-03-09T19:58:40.586Z,4.77
2024-03-09T20:01:43.370Z,7.65
2024-03-09T20:04:47.600Z,5.97
2024-03-09T20:07:57.098Z,5.30
2024-03-09T20:11:07.181Z,6.10
2024-03-09T20:14:13.949Z,3.90
2024-03-09T20:17:17.713Z,4.60
2024-03-09T20:20:21.432Z,5.63
2024-03-09T20:23:24.116Z,4.05
2024-03-09T20:26:27.509Z,6.15
2024-03-09T20:29:30.115Z,4.57
2024-03-09T20:32:34.364Z,4.85
2024-03-09T20:35:36.818Z,5.07
2024-03-09T20:38:39.560Z,5.70
2024-03-09T20:41:43.713Z,4.28
2024-03-09T20:47:49.080Z,4.63
2024-03-09T20:50:53.541Z,4.93
2024-03-09T20:53:56.294Z,5.50
2024-03-09T20:56:59.233Z,4.30
2024-03-09T21:00:02.219Z,4.13
2024-03-09T21:03:06.725Z,5.77
2024-03-09T21:06:09.828Z,4.13
2024-03-09T21:09:14.906Z,4.17
2024-03-09T21:15:21.030Z,5.38
2024-03-09T21:18:23.920Z,5.60
2024-03-09T21:21:27.083Z,4.70
2024-03-09T21:24:29.797Z,3.97
2024-03-09T21:27:34.306Z,6.30
2024-03-09T21:30:37.184Z,6.32
2024-03-09T21:33:40.692Z,4.32
2024-03-09T21:36:43.493Z,3.67
2024-03-09T21:39:46.145Z,4.60
2024-03-09T21:42:49.173Z,4.30
2024-03-09T21:45:53.254Z,4.85
2024-03-09T21:48:55.700Z,4.33
2024-03-09T21:51:59.895Z,5.25
2024-03-09T21:55:02.560Z,4.25
2024-03-09T21:58:07.485Z,4.15
2024-03-09T22:01:12.870Z,4.70
2024-03-09T22:04:15.729Z,4.78
2024-03-09T22:07:18.426Z,4.88
2024-03-09T22:10:23.382Z,6.75
2024-03-09T22:13:25.808Z,5.20
2024-03-09T22:16:28.384Z,5.93
2024-03-09T22:19:30.786Z,5.28
2024-03-09T22:22:35.002Z,4.88
2024-03-09T22:25:37.453Z,6.43
2024-03-09T22:28:40.455Z,4.88
2024-03-09T22:31:43.150Z,6.13
2024-03-09T22:34:47.120Z,4.93
2024-03-09T22:37:49.561Z,5.70
2024-03-09T22:40:52.671Z,8.63
2024-03-09T22:43:56.007Z,3.72
2024-03-09T22:47:00.107Z,4.55
2024-03-09T22:50:03.449Z,4.40
2024-03-09T22:53:06.448Z,4.25
2024-03-09T22:56:10.171Z,5.07
2024-03-09T22:59:13.361Z,5.05
2024-03-09T23:02:17.096Z,9.65
2024-03-09T23:05:20.018Z,5.70
2024-03-09T23:08:22.691Z,4.78
2024-03-09T23:11:25.540Z,5.78
2024-03-09T23:14:28.233Z,4.53
2024-03-09T23:17:32.025Z,3.70
2024-03-09T23:20:35.225Z,5.45
2024-03-09T23:23:38.241Z,3.43
2024-03-09T23:26:41.874Z,5.15
2024-03-09T23:29:45.259Z,3.35
2024-03-09T23:32:48.379Z,4.35
2024-03-09T23:35:51.818Z,5.10
2024-03-09T23:38:54.062Z,4.63
2024-03-09T23:41:56.745Z,4.90
2024-03-09T23:44:59.854Z,5.28
2024-03-09T23:48:04.111Z,4.43
2024-03-09T23:51:07.692Z,5.63
2024-03-09T23:54:11.047Z,5.32
2024-03-09T23:57:14.248Z,3.55
